createdAt,value
2018-02-11T00:00:52.793Z,7.1
2018-02-11T00:01:55.219Z,7.1
2018-02-11T00:02:57.638Z,7.1
2018-02-11T00:04:00.354Z,7.1
2018-02-11T00:05:02.782Z,7.1
2018-02-11T00:06:05.190Z,7.1
2018-02-11T00:07:07.614Z,7.1
2018-02-11T00:08:10.331Z,7.1
2018-02-11T00:09:12.748Z,7.1
2018-02-11T00:10:15.453Z,7
2018-02-11T00:11:17.877Z,7.1
2018-02-11T00:12:20.299Z,7.1
2018-02-11T00:13:22.724Z,7
2018-02-11T00:14:25.148Z,7
2018-02-11T00:15:27.563Z,7
2018-02-11T00:16:29.993Z,7.1
2018-02-11T00:17:32.990Z,7
2018-02-11T00:18:35.408Z,7
2018-02-11T00:19:37.841Z,7
2018-02-11T00:20:40.266Z,7
2018-02-11T00:21:42.687Z,7
2018-02-11T00:22:45.099Z,7
2018-02-11T00:23:47.525Z,7
2018-02-11T00:24:49.948Z,7
2018-02-11T00:25:52.372Z,7
2018-02-11T00:26:54.787Z,7
2018-02-11T00:27:57.201Z,7.1
2018-02-11T00:28:59.624Z,7.1
2018-02-11T00:30:02.921Z,7.1
2018-02-11T00:31:05.339Z,7.1
2018-02-11T00:32:08.070Z,7.1
2018-02-11T00:33:10.498Z,7.2
2018-02-11T00:34:12.912Z,7.1
2018-02-11T00:35:15.330Z,7.1
2018-02-11T00:36:17.751Z,7.1
2018-02-11T00:37:20.171Z,7.1
2018-02-11T00:38:22.599Z,7.1
2018-02-11T00:39:25.017Z,7.1
2018-02-11T00:40:27.437Z,7.1
2018-02-11T00:41:29.866Z,7.1
2018-02-11T00:42:32.288Z,7.1
2018-02-11T00:43:35.000Z,7.1
2018-02-11T00:44:37.422Z,7.1
2018-02-11T00:45:39.846Z,7.1
2018-02-11T00:46:42.257Z,7.1
2018-02-11T00:47:44.679Z,7.1
2018-02-11T00:48:47.112Z,7.1
2018-02-11T00:49:49.820Z,7.1
2018-02-11T00:50:52.237Z,7
2018-02-11T00:51:54.665Z,7.1
2018-02-11T00:52:57.084Z,7.1
2018-02-11T00:53:59.523Z,7
2018-02-11T00:55:01.945Z,7
2018-02-11T00:56:04.357Z,7
2018-02-11T00:57:06.782Z,7
2018-02-11T00:58:09.202Z,7
2018-02-11T00:59:11.623Z,7
2018-02-11T01:00:14.043Z,7
2018-02-11T01:01:16.464Z,7
2018-02-11T01:02:18.888Z,7.1
2018-02-11T01:03:21.667Z,7
2018-02-11T01:04:24.085Z,7
2018-02-11T01:05:26.490Z,7.1
2018-02-11T01:06:28.916Z,7.1
2018-02-11T01:07:31.334Z,7.1
2018-02-11T01:08:33.765Z,7.1
2018-02-11T01:09:36.184Z,7.1
2018-02-11T01:10:38.601Z,7.1
2018-02-11T01:11:41.029Z,7.1
2018-02-11T01:12:43.462Z,7.1
2018-02-11T01:13:45.883Z,7.1
2018-02-11T01:14:48.301Z,7.1
2018-02-11T01:15:50.723Z,7
2018-02-11T01:16:53.148Z,7
2018-02-11T01:17:55.558Z,7
2018-02-11T01:18:57.984Z,7.1
2018-02-11T01:20:00.702Z,7
2018-02-11T01:21:03.414Z,7.1
2018-02-11T01:22:05.832Z,7.1
2018-02-11T01:23:08.256Z,7.1
2018-02-11T01:24:10.684Z,7.1
2018-02-11T01:25:13.109Z,7.1
2018-02-11T01:26:15.526Z,7.1
2018-02-11T01:27:17.941Z,7.1
2018-02-11T01:28:20.355Z,7.1
2018-02-11T01:29:22.784Z,7.1
2018-02-11T01:30:25.193Z,7.1
2018-02-11T01:31:27.623Z,7.1
2018-02-11T01:32:30.048Z,7.1
2018-02-11T01:33:32.466Z,7.2
2018-02-11T01:34:34.887Z,7.2
2018-02-11T01:35:37.310Z,7.1
2018-02-11T01:36:39.720Z,7.1
2018-02-11T01:37:42.155Z,7.1
2018-02-11T01:38:44.573Z,7.1
2018-02-11T01:39:46.994Z,7.1
2018-02-11T01:40:49.421Z,7.1
2018-02-11T01:41:51.835Z,7.2
2018-02-11T01:42:54.259Z,7.1
2018-02-11T01:43:56.684Z,7.1
2018-02-11T01:44:59.112Z,7.2
2018-02-11T01:46:01.525Z,7.2
2018-02-11T01:47:03.947Z,7.2
2018-02-11T01:48:06.378Z,7.3
2018-02-11T01:49:08.801Z,7.2
2018-02-11T01:50:11.221Z,7.3
2018-02-11T01:51:13.641Z,7.3
2018-02-11T01:52:16.344Z,7.2
2018-02-11T01:53:18.773Z,7.3
2018-02-11T01:54:21.194Z,7.3
2018-02-11T01:55:23.600Z,7.3
2018-02-11T01:56:26.027Z,7.3
2018-02-11T01:57:28.444Z,7.2
2018-02-11T01:58:30.878Z,7.2
2018-02-11T01:59:33.300Z,7.2
2018-02-11T02:00:35.990Z,7.1
2018-02-11T02:01:38.695Z,7.1
2018-02-11T02:02:41.125Z,7.1
2018-02-11T02:03:43.548Z,7.1
2018-02-11T02:04:45.972Z,7.1
2018-02-11T02:05:48.684Z,7.1
2018-02-11T02:06:51.090Z,7
2018-02-11T02:07:53.527Z,7
2018-02-11T02:08:55.948Z,7
2018-02-11T02:09:58.359Z,7
2018-02-11T02:11:00.784Z,7
2018-02-11T02:12:03.200Z,7
2018-02-11T02:13:05.619Z,7
2018-02-11T02:14:08.044Z,7
2018-02-11T02:15:10.756Z,7
2018-02-11T02:16:13.774Z,7
2018-02-11T02:17:16.191Z,7
2018-02-11T02:18:18.615Z,7
2018-02-11T02:19:21.048Z,7
2018-02-11T02:20:23.474Z,7
2018-02-11T02:21:25.902Z,7
2018-02-11T02:22:28.324Z,7
2018-02-11T02:23:30.749Z,7
2018-02-11T02:24:33.171Z,7
2018-02-11T02:25:35.598Z,7
2018-02-11T02:26:38.010Z,7
2018-02-11T02:27:40.433Z,7
2018-02-11T02:28:42.864Z,7
2018-02-11T02:29:45.565Z,7
2018-02-11T02:30:47.975Z,7
2018-02-11T02:31:50.392Z,7
2018-02-11T02:32:53.124Z,7
2018-02-11T02:33:55.568Z,7
2018-02-11T02:34:57.986Z,7
2018-02-11T02:36:00.412Z,6.9
2018-02-11T02:37:02.835Z,7
2018-02-11T02:38:05.253Z,6.9
2018-02-11T02:39:07.677Z,6.9
2018-02-11T02:40:10.098Z,6.9
2018-02-11T02:41:12.512Z,6.9
2018-02-11T02:42:14.940Z,6.9
2018-02-11T02:43:17.363Z,6.9
2018-02-11T02:44:19.784Z,6.8
2018-02-11T02:45:22.491Z,6.8
2018-02-11T02:46:24.906Z,6.8
2018-02-11T02:47:27.344Z,6.8
2018-02-11T02:48:30.056Z,6.7
2018-02-11T02:49:32.478Z,6.7
2018-02-11T02:50:34.907Z,6.7
2018-02-11T02:51:37.674Z,6.6
2018-02-11T02:52:40.030Z,6.6
2018-02-11T02:53:42.452Z,6.6
2018-02-11T02:54:45.144Z,6.6
2018-02-11T02:55:47.570Z,6.5
2018-02-11T02:56:49.993Z,6.5
2018-02-11T02:57:52.696Z,6.5
2018-02-11T02:58:55.435Z,6.5
2018-02-11T02:59:57.859Z,6.5
2018-02-11T03:01:00.854Z,6.4
2018-02-11T03:02:03.283Z,6.4
2018-02-11T03:03:05.696Z,6.4
2018-02-11T03:04:08.122Z,6.4
2018-02-11T03:05:10.554Z,6.4
2018-02-11T03:06:12.963Z,6.4
2018-02-11T03:07:15.381Z,6.4
2018-02-11T03:08:17.808Z,6.4
2018-02-11T03:09:20.222Z,6.4
2018-02-11T03:10:22.643Z,6.4
2018-02-11T03:11:25.351Z,6.4
2018-02-11T03:12:27.770Z,6.4
2018-02-11T03:13:30.196Z,6.4
2018-02-11T03:14:32.624Z,6.4
2018-02-11T03:15:35.042Z,6.4
2018-02-11T03:16:37.467Z,6.4
2018-02-11T03:17:39.884Z,6.4
2018-02-11T03:18:42.312Z,6.4
2018-02-11T03:19:45.019Z,6.4
2018-02-11T03:20:47.432Z,6.4
2018-02-11T03:21:49.856Z,6.4
2018-02-11T03:22:52.279Z,6.4
2018-02-11T03:23:54.705Z,6.4
2018-02-11T03:24:57.129Z,6.5
2018-02-11T03:25:59.535Z,6.5
2018-02-11T03:27:01.956Z,6.5
2018-02-11T03:28:04.388Z,6.5
2018-02-11T03:29:06.818Z,6.5
2018-02-11T03:30:09.230Z,6.6
2018-02-11T03:31:11.652Z,6.5
2018-02-11T03:32:14.069Z,6.5
2018-02-11T03:33:16.499Z,6.5
2018-02-11T03:34:18.921Z,6.5
2018-02-11T03:35:21.339Z,6.5
2018-02-11T03:36:23.764Z,6.5
2018-02-11T03:37:26.182Z,6.5
2018-02-11T03:38:28.611Z,6.5
2018-02-11T03:39:31.038Z,6.5
2018-02-11T03:40:33.450Z,6.5
2018-02-11T03:41:35.876Z,6.5
2018-02-11T03:42:38.306Z,6.5
2018-02-11T03:43:40.722Z,6.5
2018-02-11T03:44:43.148Z,6.5
2018-02-11T03:45:45.567Z,6.6
2018-02-11T03:46:47.987Z,6.6
2018-02-11T03:47:50.406Z,6.6
2018-02-11T03:48:52.830Z,6.6
2018-02-11T03:49:55.249Z,6.6
2018-02-11T03:50:57.675Z,6.6
2018-02-11T03:52:00.089Z,6.6
2018-02-11T03:53:02.509Z,6.5
2018-02-11T03:54:04.934Z,6.5
2018-02-11T03:55:07.348Z,6.5
2018-02-11T03:56:09.768Z,6.5
2018-02-11T03:57:12.481Z,6.5
2018-02-11T03:58:15.190Z,6.5
2018-02-11T03:59:17.624Z,6.6
2018-02-11T04:00:20.048Z,6.5
2018-02-11T04:01:22.469Z,6.5
2018-02-11T04:02:25.198Z,6.5
2018-02-11T04:03:27.619Z,6.5
2018-02-11T04:04:30.609Z,6.5
2018-02-11T04:05:33.319Z,6.5
2018-02-11T04:06:35.728Z,6.5
2018-02-11T04:07:38.149Z,6.4
2018-02-11T04:08:40.578Z,6.4
2018-02-11T04:09:42.993Z,6.4
2018-02-11T04:10:45.424Z,6.4
2018-02-11T04:11:47.836Z,6.4
2018-02-11T04:12:50.258Z,6.4
2018-02-11T04:13:52.672Z,6.4
2018-02-11T04:14:55.093Z,6.4
2018-02-11T04:15:57.527Z,6.4
2018-02-11T04:16:59.943Z,6.4
2018-02-11T04:18:02.364Z,6.4
2018-02-11T04:19:04.772Z,6.4
2018-02-11T04:20:07.193Z,6.4
2018-02-11T04:21:09.615Z,6.4
2018-02-11T04:22:12.328Z,6.4
2018-02-11T04:23:14.733Z,6.4
2018-02-11T04:24:17.161Z,6.4
2018-02-11T04:25:19.579Z,6.4
2018-02-11T04:26:22.008Z,6.4
2018-02-11T04:27:24.432Z,6.3
2018-02-11T04:28:26.847Z,6.3
2018-02-11T04:29:29.265Z,6.3
2018-02-11T04:30:31.693Z,6.2
2018-02-11T04:31:34.110Z,6.2
2018-02-11T04:32:36.528Z,6.2
2018-02-11T04:33:38.946Z,6.2
2018-02-11T04:34:41.368Z,6.2
2018-02-11T04:35:43.788Z,6.1
2018-02-11T04:36:46.209Z,6.1
2018-02-11T04:37:48.620Z,6.1
2018-02-11T04:38:51.046Z,6.1
2018-02-11T04:39:53.464Z,6
2018-02-11T04:40:55.892Z,6
2018-02-11T04:41:58.306Z,6
2018-02-11T04:43:00.719Z,6
2018-02-11T04:44:03.143Z,6
2018-02-11T04:45:05.567Z,5.9
2018-02-11T04:46:07.991Z,5.9
2018-02-11T04:47:10.698Z,5.9
2018-02-11T04:48:13.405Z,5.9
2018-02-11T04:49:15.813Z,5.9
2018-02-11T04:50:18.817Z,5.9
2018-02-11T04:51:21.230Z,5.9
2018-02-11T04:52:23.652Z,5.9
2018-02-11T04:53:26.069Z,5.9
2018-02-11T04:54:28.491Z,5.9
2018-02-11T04:55:30.914Z,5.9
2018-02-11T04:56:33.343Z,5.9
2018-02-11T04:57:35.751Z,5.9
2018-02-11T04:58:38.184Z,5.9
2018-02-11T04:59:40.603Z,5.9
2018-02-11T05:00:43.021Z,5.8
2018-02-11T05:01:45.446Z,5.8
2018-02-11T05:02:47.866Z,5.8
2018-02-11T05:03:50.282Z,5.8
2018-02-11T05:04:53.004Z,5.8
2018-02-11T05:05:55.406Z,5.8
2018-02-11T05:06:58.135Z,5.8
2018-02-11T05:08:00.553Z,5.7
2018-02-11T05:09:02.975Z,5.7
2018-02-11T05:10:05.393Z,5.7
2018-02-11T05:11:07.823Z,5.7
2018-02-11T05:12:10.241Z,5.7
2018-02-11T05:13:12.652Z,5.7
2018-02-11T05:14:15.063Z,5.7
2018-02-11T05:15:17.497Z,5.7
2018-02-11T05:16:19.916Z,5.7
2018-02-11T05:17:22.326Z,5.7
2018-02-11T05:18:24.743Z,5.7
2018-02-11T05:19:27.161Z,5.7
2018-02-11T05:20:29.581Z,5.7
2018-02-11T05:21:32.006Z,5.7
2018-02-11T05:22:34.417Z,5.7
2018-02-11T05:23:36.837Z,5.7
2018-02-11T05:24:39.263Z,5.7
2018-02-11T05:25:41.685Z,5.7
2018-02-11T05:26:44.110Z,5.7
2018-02-11T05:27:46.811Z,5.7
2018-02-11T05:28:49.505Z,5.7
2018-02-11T05:29:51.937Z,5.7
2018-02-11T05:30:54.356Z,5.7
2018-02-11T05:31:56.770Z,5.7
2018-02-11T05:32:59.188Z,5.7
2018-02-11T05:34:01.616Z,5.7
2018-02-11T05:35:04.030Z,5.7
2018-02-11T05:36:06.454Z,5.7
2018-02-11T05:37:08.856Z,5.7
2018-02-11T05:38:11.275Z,5.6
2018-02-11T05:39:13.706Z,5.6
2018-02-11T05:40:16.415Z,5.6
2018-02-11T05:41:18.835Z,5.6
2018-02-11T05:42:21.535Z,5.6
2018-02-11T05:43:23.948Z,5.6
2018-02-11T05:44:26.371Z,5.6
2018-02-11T05:45:28.786Z,5.6
2018-02-11T05:46:31.214Z,5.6
2018-02-11T05:47:33.634Z,5.6
2018-02-11T05:48:36.331Z,5.6
2018-02-11T05:49:39.036Z,5.7
2018-02-11T05:50:41.455Z,5.6
2018-02-11T05:51:44.165Z,5.7
2018-02-11T05:52:46.586Z,5.6
2018-02-11T05:53:49.002Z,5.6
2018-02-11T05:54:51.424Z,5.6
2018-02-11T05:55:54.142Z,5.6
2018-02-11T05:56:56.557Z,5.6
2018-02-11T05:57:59.273Z,5.6
2018-02-11T05:59:01.971Z,5.6
2018-02-11T06:00:04.396Z,5.6
2018-02-11T06:01:06.813Z,5.6
2018-02-11T06:02:09.231Z,5.6
2018-02-11T06:03:11.637Z,5.6
2018-02-11T06:04:14.071Z,5.6
2018-02-11T06:05:16.478Z,5.6
2018-02-11T06:06:19.186Z,5.6
2018-02-11T06:07:21.602Z,5.6
2018-02-11T06:08:24.031Z,5.6
2018-02-11T06:09:26.447Z,5.5
2018-02-11T06:10:28.872Z,5.5
2018-02-11T06:11:31.570Z,5.5
2018-02-11T06:12:33.984Z,5.5
2018-02-11T06:13:36.408Z,5.5
2018-02-11T06:14:39.120Z,5.5
2018-02-11T06:15:41.540Z,5.6
2018-02-11T06:16:44.244Z,5.6
2018-02-11T06:17:46.677Z,5.6
2018-02-11T06:18:49.091Z,5.6
2018-02-11T06:19:51.505Z,5.6
2018-02-11T06:20:53.931Z,5.6
2018-02-11T06:21:56.342Z,5.6
2018-02-11T06:22:58.761Z,5.6
2018-02-11T06:24:01.183Z,5.6
2018-02-11T06:25:03.891Z,5.6
2018-02-11T06:26:06.887Z,5.5
2018-02-11T06:27:09.595Z,5.5
2018-02-11T06:28:12.008Z,5.5
2018-02-11T06:29:14.438Z,5.5
2018-02-11T06:30:17.144Z,5.5
2018-02-11T06:31:19.552Z,5.5
2018-02-11T06:32:21.969Z,5.5
2018-02-11T06:33:24.391Z,5.5
2018-02-11T06:34:26.812Z,5.5
2018-02-11T06:35:29.522Z,5.5
2018-02-11T06:36:31.936Z,5.5
2018-02-11T06:37:34.370Z,5.5
2018-02-11T06:38:36.806Z,5.5
2018-02-11T06:39:39.222Z,5.5
2018-02-11T06:40:41.638Z,5.6
2018-02-11T06:41:44.369Z,5.6
2018-02-11T06:42:46.789Z,5.6
2018-02-11T06:43:49.191Z,5.6
2018-02-11T06:44:51.616Z,5.6
2018-02-11T06:45:54.330Z,5.6
2018-02-11T06:46:56.752Z,5.6
2018-02-11T06:47:59.169Z,5.6
2018-02-11T06:49:01.592Z,5.5
2018-02-11T06:50:04.309Z,5.5
2018-02-11T06:51:06.738Z,5.5
2018-02-11T06:52:09.156Z,5.5
2018-02-11T06:53:11.847Z,5.5
2018-02-11T06:54:14.275Z,5.5
2018-02-11T06:55:16.691Z,5.5
2018-02-11T06:56:19.110Z,5.5
2018-02-11T06:57:21.535Z,5.5
2018-02-11T06:58:23.949Z,5.5
2018-02-11T06:59:26.370Z,5.5
2018-02-11T07:00:28.786Z,5.5
2018-02-11T07:01:31.198Z,5.5
2018-02-11T07:02:33.619Z,5.5
2018-02-11T07:03:36.042Z,5.5
2018-02-11T07:04:38.751Z,5.5
2018-02-11T07:05:41.738Z,5.5
2018-02-11T07:06:44.160Z,5.5
2018-02-11T07:07:46.584Z,5.6
2018-02-11T07:08:49.006Z,5.6
2018-02-11T07:09:51.424Z,5.6
2018-02-11T07:10:53.850Z,5.5
2018-02-11T07:11:56.269Z,5.6
2018-02-11T07:12:58.968Z,5.6
2018-02-11T07:14:01.666Z,5.6
2018-02-11T07:15:04.094Z,5.6
2018-02-11T07:16:06.520Z,5.6
2018-02-11T07:17:08.952Z,5.6
2018-02-11T07:18:11.358Z,5.6
2018-02-11T07:19:14.080Z,5.6
2018-02-11T07:20:16.774Z,5.6
2018-02-11T07:21:19.201Z,5.6
2018-02-11T07:22:21.908Z,5.7
2018-02-11T07:23:24.327Z,5.7
2018-02-11T07:24:26.731Z,5.7
2018-02-11T07:25:29.158Z,5.7
2018-02-11T07:26:31.571Z,5.7
2018-02-11T07:27:33.994Z,5.7
2018-02-11T07:28:36.423Z,5.7
2018-02-11T07:29:38.835Z,5.7
2018-02-11T07:30:41.248Z,5.7
2018-02-11T07:31:43.671Z,5.8
2018-02-11T07:32:46.096Z,5.8
2018-02-11T07:33:48.521Z,5.8
2018-02-11T07:34:50.941Z,5.8
2018-02-11T07:35:53.348Z,5.8
2018-02-11T07:36:55.776Z,5.9
2018-02-11T07:37:58.479Z,5.9
2018-02-11T07:39:00.905Z,5.9
2018-02-11T07:40:03.634Z,5.9
2018-02-11T07:41:06.058Z,5.9
2018-02-11T07:42:08.470Z,5.9
2018-02-11T07:43:10.909Z,5.9
2018-02-11T07:44:13.320Z,5.9
2018-02-11T07:45:15.735Z,5.9
2018-02-11T07:46:18.467Z,6
2018-02-11T07:47:20.891Z,6
2018-02-11T07:48:23.303Z,6
2018-02-11T07:49:25.726Z,6
2018-02-11T07:50:28.422Z,6
2018-02-11T07:51:30.837Z,6
2018-02-11T07:52:33.271Z,6
2018-02-11T07:53:35.999Z,6.1
2018-02-11T07:54:38.706Z,6.1
2018-02-11T07:55:41.118Z,6.1
2018-02-11T07:56:43.540Z,6.1
2018-02-11T07:57:45.964Z,6.1
2018-02-11T07:58:48.385Z,6.1
2018-02-11T07:59:50.794Z,6.1
2018-02-11T08:00:53.210Z,6.1
2018-02-11T08:01:55.646Z,6.1
2018-02-11T08:02:58.061Z,6.1
2018-02-11T08:04:00.773Z,6.2
2018-02-11T08:05:03.463Z,6.1
2018-02-11T08:06:05.884Z,6.2
2018-02-11T08:07:08.311Z,6.2
2018-02-11T08:08:11.018Z,6.2
2018-02-11T08:09:13.432Z,6.2
2018-02-11T08:10:16.131Z,6.2
2018-02-11T08:11:18.551Z,6.2
2018-02-11T08:12:20.971Z,6.2
2018-02-11T08:13:23.392Z,6.3
2018-02-11T08:14:26.108Z,6.3
2018-02-11T08:15:28.529Z,6.3
2018-02-11T08:16:30.943Z,6.3
2018-02-11T08:17:33.381Z,6.3
2018-02-11T08:18:35.795Z,6.3
2018-02-11T08:19:38.212Z,6.3
2018-02-11T08:20:40.628Z,6.3
2018-02-11T08:21:43.045Z,6.3
2018-02-11T08:22:45.460Z,6.3
2018-02-11T08:23:48.184Z,6.3
2018-02-11T08:24:50.878Z,6.3
2018-02-11T08:25:53.312Z,6.3
2018-02-11T08:26:55.728Z,6.3
2018-02-11T08:27:58.149Z,6.3
2018-02-11T08:29:00.569Z,6.3
2018-02-11T08:30:02.988Z,6.4
2018-02-11T08:31:05.407Z,6.4
2018-02-11T08:32:07.835Z,6.3
2018-02-11T08:33:10.255Z,6.3
2018-02-11T08:34:12.680Z,6.4
2018-02-11T08:35:15.102Z,6.4
2018-02-11T08:36:17.834Z,6.4
2018-02-11T08:37:20.250Z,6.4
2018-02-11T08:38:22.674Z,6.4
2018-02-11T08:39:25.102Z,6.4
2018-02-11T08:40:27.801Z,6.4
2018-02-11T08:41:30.222Z,6.4
2018-02-11T08:42:32.656Z,6.4
2018-02-11T08:43:35.634Z,6.4
2018-02-11T08:44:38.053Z,6.4
2018-02-11T08:45:40.473Z,6.4
2018-02-11T08:46:42.893Z,6.4
2018-02-11T08:47:45.613Z,6.4
2018-02-11T08:48:48.312Z,6.4
2018-02-11T08:49:50.722Z,6.4
2018-02-11T08:50:53.150Z,6.4
2018-02-11T08:51:55.574Z,6.4
2018-02-11T08:52:57.995Z,6.4
2018-02-11T08:54:00.714Z,6.4
2018-02-11T08:55:03.417Z,6.3
2018-02-11T08:56:05.842Z,6.4
2018-02-11T08:57:08.555Z,6.3
2018-02-11T08:58:10.970Z,6.4
2018-02-11T08:59:13.389Z,6.4
2018-02-11T09:00:16.083Z,6.3
2018-02-11T09:01:18.558Z,6.4
2018-02-11T09:02:20.934Z,6.3
2018-02-11T09:03:23.358Z,6.3
2018-02-11T09:04:26.056Z,6.4
2018-02-11T09:05:28.483Z,6.3
2018-02-11T09:06:30.908Z,6.3
2018-02-11T09:07:33.335Z,6.3
2018-02-11T09:08:35.748Z,6.4
2018-02-11T09:09:38.169Z,6.3
2018-02-11T09:10:40.592Z,6.3
2018-02-11T09:11:43.009Z,6.4
2018-02-11T09:12:45.444Z,6.3
2018-02-11T09:13:48.153Z,6.3
2018-02-11T09:14:50.568Z,6.3
2018-02-11T09:15:52.989Z,6.3
2018-02-11T09:16:55.415Z,6.3
2018-02-11T09:17:58.115Z,6.3
2018-02-11T09:19:00.537Z,6.2
2018-02-11T09:20:02.961Z,6.3
2018-02-11T09:21:05.376Z,6.2
2018-02-11T09:22:07.800Z,6.2
2018-02-11T09:23:10.225Z,6.2
2018-02-11T09:24:12.642Z,6.2
2018-02-11T09:25:15.075Z,6.2
2018-02-11T09:26:17.495Z,6.2
2018-02-11T09:27:19.911Z,6.2
2018-02-11T09:28:22.327Z,6.2
2018-02-11T09:29:24.749Z,6.2
2018-02-11T09:30:27.166Z,6.1
2018-02-11T09:31:29.595Z,6.1
2018-02-11T09:32:32.006Z,6.1
2018-02-11T09:33:34.426Z,6.1
2018-02-11T09:34:36.856Z,6.1
2018-02-11T09:35:39.274Z,6.1
2018-02-11T09:36:41.696Z,6.1
2018-02-11T09:37:44.117Z,6.1
2018-02-11T09:38:46.536Z,6.1
2018-02-11T09:39:48.959Z,6.1
2018-02-11T09:40:51.384Z,6.1
2018-02-11T09:41:54.073Z,6.1
2018-02-11T09:42:56.492Z,6
2018-02-11T09:43:58.921Z,6.1
2018-02-11T09:45:01.411Z,6
2018-02-11T09:46:03.769Z,6
2018-02-11T09:47:06.193Z,6
2018-02-11T09:48:08.610Z,6
2018-02-11T09:49:11.043Z,6
2018-02-11T09:50:13.467Z,6
2018-02-11T09:51:15.875Z,6
2018-02-11T09:52:18.294Z,6
2018-02-11T09:53:20.994Z,6
2018-02-11T09:54:23.420Z,6
2018-02-11T09:55:25.835Z,6
2018-02-11T09:56:28.244Z,6
2018-02-11T09:57:30.662Z,6
2018-02-11T09:58:33.086Z,6
2018-02-11T09:59:35.507Z,6
2018-02-11T10:00:37.922Z,5.9
2018-02-11T10:01:40.348Z,6
2018-02-11T10:02:43.067Z,6
2018-02-11T10:03:45.504Z,6
2018-02-11T10:04:47.974Z,5.9
2018-02-11T10:05:50.341Z,6
2018-02-11T10:06:52.763Z,5.9
2018-02-11T10:07:55.466Z,6
2018-02-11T10:08:57.887Z,6
2018-02-11T10:10:00.312Z,6
2018-02-11T10:11:02.736Z,6
2018-02-11T10:12:05.161Z,6.1
2018-02-11T10:13:07.567Z,6.1
2018-02-11T10:14:09.990Z,6.1
2018-02-11T10:15:12.707Z,6.1
2018-02-11T10:16:15.417Z,6.1
2018-02-11T10:17:17.837Z,6.1
2018-02-11T10:18:20.266Z,6.1
2018-02-11T10:19:22.669Z,6.1
2018-02-11T10:20:25.094Z,6.1
2018-02-11T10:21:27.514Z,6.1
2018-02-11T10:22:29.922Z,6.1
2018-02-11T10:23:32.630Z,6.2
2018-02-11T10:24:35.339Z,6.2
2018-02-11T10:25:37.768Z,6.1
2018-02-11T10:26:40.187Z,6.2
2018-02-11T10:27:42.880Z,6.2
2018-02-11T10:28:45.302Z,6.1
2018-02-11T10:29:47.734Z,6.2
2018-02-11T10:30:50.136Z,6.1
2018-02-11T10:31:52.570Z,6.1
2018-02-11T10:32:54.983Z,6.2
2018-02-11T10:33:57.427Z,6.2
2018-02-11T10:34:59.828Z,6.2
2018-02-11T10:36:02.557Z,6.2
2018-02-11T10:37:05.239Z,6.2
2018-02-11T10:38:07.658Z,6.1
2018-02-11T10:39:10.091Z,6.1
2018-02-11T10:40:12.517Z,6.1
2018-02-11T10:41:14.921Z,6.1
2018-02-11T10:42:17.347Z,6.1
2018-02-11T10:43:19.768Z,6.1
2018-02-11T10:44:22.186Z,6.1
2018-02-11T10:45:24.612Z,6.1
2018-02-11T10:46:27.021Z,6.1
2018-02-11T10:47:29.442Z,6.2
2018-02-11T10:48:31.866Z,6.1
2018-02-11T10:49:34.284Z,6.1
2018-02-11T10:50:36.698Z,6.1
2018-02-11T10:51:39.122Z,6.1
2018-02-11T10:52:41.542Z,6.1
2018-02-11T10:53:43.968Z,6.1
2018-02-11T10:54:46.391Z,6.1
2018-02-11T10:55:48.800Z,6.2
2018-02-11T10:56:51.223Z,6.2
2018-02-11T10:57:53.642Z,6.1
2018-02-11T10:58:56.059Z,6.2
2018-02-11T10:59:58.483Z,6.1
2018-02-11T11:01:00.893Z,6.1
2018-02-11T11:02:03.604Z,6.1
2018-02-11T11:03:06.315Z,6.1
2018-02-11T11:04:08.730Z,6.2
2018-02-11T11:05:11.147Z,6.2
2018-02-11T11:06:13.850Z,6.2
2018-02-11T11:07:16.267Z,6.2
2018-02-11T11:08:18.693Z,6.2
2018-02-11T11:09:21.114Z,6.2
2018-02-11T11:10:23.540Z,6.2
2018-02-11T11:11:25.961Z,6.2
2018-02-11T11:12:28.377Z,6.2
2018-02-11T11:13:30.810Z,6.2
2018-02-11T11:14:33.225Z,6.2
2018-02-11T11:15:35.643Z,6.2
2018-02-11T11:16:38.069Z,6.1
2018-02-11T11:17:40.772Z,6.2
2018-02-11T11:18:43.192Z,6.1
2018-02-11T11:19:45.618Z,6.1
2018-02-11T11:20:48.318Z,6.2
2018-02-11T11:21:50.742Z,6.2
2018-02-11T11:22:53.161Z,6.2
2018-02-11T11:23:55.572Z,6.2
2018-02-11T11:24:58.001Z,6.2
2018-02-11T11:26:00.422Z,6.2
2018-02-11T11:27:02.836Z,6.2
2018-02-11T11:28:05.262Z,6.2
2018-02-11T11:29:07.679Z,6.2
2018-02-11T11:30:10.099Z,6.2
2018-02-11T11:31:12.521Z,6.2
2018-02-11T11:32:14.941Z,6.2
2018-02-11T11:33:17.361Z,6.2
2018-02-11T11:34:19.792Z,6.2
2018-02-11T11:35:22.210Z,6.2
2018-02-11T11:36:24.631Z,6.2
2018-02-11T11:37:27.341Z,6.3
2018-02-11T11:38:29.757Z,6.2
2018-02-11T11:39:32.182Z,6.2
2018-02-11T11:40:34.609Z,6.2
2018-02-11T11:41:37.023Z,6.2
2018-02-11T11:42:39.445Z,6.2
2018-02-11T11:43:41.871Z,6.2
2018-02-11T11:44:44.279Z,6.2
2018-02-11T11:45:46.712Z,6.2
2018-02-11T11:46:49.432Z,6.2
2018-02-11T11:47:51.852Z,6.2
2018-02-11T11:48:54.270Z,6.1
2018-02-11T11:49:56.690Z,6.2
2018-02-11T11:50:59.147Z,6.1
2018-02-11T11:52:01.543Z,6.2
2018-02-11T11:53:03.962Z,6.2
2018-02-11T11:54:06.387Z,6.2
2018-02-11T11:55:08.848Z,6.2
2018-02-11T11:56:11.519Z,6.2
2018-02-11T11:57:13.951Z,6.2
2018-02-11T11:58:16.374Z,6.2
2018-02-11T11:59:18.786Z,6.2
2018-02-11T12:00:21.201Z,6.2
2018-02-11T12:01:23.620Z,6.2
2018-02-11T12:02:26.042Z,6.2
2018-02-11T12:03:28.496Z,6.2
2018-02-11T12:04:30.884Z,6.2
2018-02-11T12:05:33.309Z,6.2
2018-02-11T12:06:36.015Z,6.2
2018-02-11T12:07:38.728Z,6.2
2018-02-11T12:08:41.150Z,6.3
2018-02-11T12:09:43.564Z,6.3
2018-02-11T12:10:45.992Z,6.3
2018-02-11T12:11:48.416Z,6.3
2018-02-11T12:12:50.840Z,6.3
2018-02-11T12:13:53.256Z,6.3
2018-02-11T12:14:55.687Z,6.3
2018-02-11T12:15:58.107Z,6.3
2018-02-11T12:17:00.537Z,6.3
2018-02-11T12:18:02.958Z,6.3
2018-02-11T12:19:05.367Z,6.3
2018-02-11T12:20:07.788Z,6.4
2018-02-11T12:21:10.218Z,6.4
2018-02-11T12:22:12.636Z,6.4
2018-02-11T12:23:15.061Z,6.4
2018-02-11T12:24:17.472Z,6.4
2018-02-11T12:25:19.898Z,6.3
2018-02-11T12:26:22.329Z,6.4
2018-02-11T12:27:24.750Z,6.4
2018-02-11T12:28:27.160Z,6.4
2018-02-11T12:29:29.583Z,6.4
2018-02-11T12:30:31.995Z,6.5
2018-02-11T12:31:34.428Z,6.5
2018-02-11T12:32:36.851Z,6.5
2018-02-11T12:33:39.268Z,6.5
2018-02-11T12:34:41.690Z,6.5
2018-02-11T12:35:44.122Z,6.6
2018-02-11T12:36:46.549Z,6.6
2018-02-11T12:37:48.955Z,6.6
2018-02-11T12:38:51.373Z,6.6
2018-02-11T12:39:53.795Z,6.6
2018-02-11T12:40:56.498Z,6.6
2018-02-11T12:41:58.924Z,6.6
2018-02-11T12:43:01.346Z,6.6
2018-02-11T12:44:03.763Z,6.7
2018-02-11T12:45:06.203Z,6.7
2018-02-11T12:46:08.622Z,6.7
2018-02-11T12:47:11.037Z,6.7
2018-02-11T12:48:13.455Z,6.7
2018-02-11T12:49:15.877Z,6.7
2018-02-11T12:50:18.289Z,6.7
2018-02-11T12:51:20.711Z,6.7
2018-02-11T12:52:23.133Z,6.7
2018-02-11T12:53:25.551Z,6.7
2018-02-11T12:54:27.982Z,6.7
2018-02-11T12:55:30.679Z,6.8
2018-02-11T12:56:33.115Z,6.8
2018-02-11T12:57:35.537Z,6.8
2018-02-11T12:58:37.951Z,6.8
2018-02-11T12:59:40.384Z,6.8
2018-02-11T13:00:42.806Z,6.8
2018-02-11T13:01:45.219Z,6.9
2018-02-11T13:02:47.642Z,6.9
2018-02-11T13:03:50.066Z,6.9
2018-02-11T13:04:52.485Z,6.9
2018-02-11T13:05:54.910Z,6.9
2018-02-11T13:06:57.339Z,6.9
2018-02-11T13:07:59.794Z,6.9
2018-02-11T13:09:02.174Z,6.9
2018-02-11T13:10:04.601Z,6.9
2018-02-11T13:11:07.028Z,6.9
2018-02-11T13:12:09.450Z,6.9
2018-02-11T13:13:11.871Z,6.9
2018-02-11T13:14:14.291Z,6.9
2018-02-11T13:15:16.744Z,6.9
2018-02-11T13:16:19.153Z,6.9
2018-02-11T13:17:21.851Z,7
2018-02-11T13:18:24.553Z,7
2018-02-11T13:19:26.971Z,7
2018-02-11T13:20:29.401Z,7
2018-02-11T13:21:32.116Z,7
2018-02-11T13:22:34.537Z,7
2018-02-11T13:23:37.245Z,7
2018-02-11T13:24:39.673Z,7
2018-02-11T13:25:42.094Z,7
2018-02-11T13:26:44.519Z,7
2018-02-11T13:27:46.936Z,7
2018-02-11T13:28:49.362Z,7
2018-02-11T13:29:51.786Z,7
2018-02-11T13:30:54.502Z,7
2018-02-11T13:31:56.916Z,7.1
2018-02-11T13:32:59.338Z,7.1
2018-02-11T13:34:01.757Z,7.1
2018-02-11T13:35:04.186Z,7.1
2018-02-11T13:36:06.610Z,7.1
2018-02-11T13:37:09.025Z,7.1
2018-02-11T13:38:11.736Z,7.1
2018-02-11T13:39:14.166Z,7.1
2018-02-11T13:40:16.582Z,7.1
2018-02-11T13:41:19.011Z,7.1
2018-02-11T13:42:21.437Z,7.1
2018-02-11T13:43:23.857Z,7.1
2018-02-11T13:44:26.280Z,7.2
2018-02-11T13:45:29.001Z,7.2
2018-02-11T13:46:31.426Z,7.2
2018-02-11T13:47:34.144Z,7.2
2018-02-11T13:48:36.561Z,7.3
2018-02-11T13:49:38.983Z,7.3
2018-02-11T13:50:41.411Z,7.3
2018-02-11T13:51:43.819Z,7.3
2018-02-11T13:52:46.240Z,7.3
2018-02-11T13:53:48.666Z,7.4
2018-02-11T13:54:51.103Z,7.4
2018-02-11T13:55:53.806Z,7.4
2018-02-11T13:56:56.234Z,7.4
2018-02-11T13:57:58.945Z,7.4
2018-02-11T13:59:01.379Z,7.4
2018-02-11T14:00:03.803Z,7.4
2018-02-11T14:01:06.214Z,7.4
2018-02-11T14:02:08.639Z,7.4
2018-02-11T14:03:11.350Z,7.4
2018-02-11T14:04:13.774Z,7.4
2018-02-11T14:05:16.188Z,7.4
2018-02-11T14:06:18.659Z,7.4
2018-02-11T14:07:21.040Z,7.5
2018-02-11T14:08:23.459Z,7.4
2018-02-11T14:09:26.165Z,7.5
2018-02-11T14:10:28.603Z,7.5
2018-02-11T14:11:31.033Z,7.5
2018-02-11T14:12:33.472Z,7.5
2018-02-11T14:13:35.890Z,7.6
2018-02-11T14:14:38.324Z,7.6
2018-02-11T14:15:40.771Z,7.6
2018-02-11T14:16:43.211Z,7.6
2018-02-11T14:17:45.642Z,7.6
2018-02-11T14:18:48.075Z,7.7
2018-02-11T14:19:50.511Z,7.7
2018-02-11T14:20:52.934Z,7.7
2018-02-11T14:21:55.365Z,7.7
2018-02-11T14:22:57.782Z,7.7
2018-02-11T14:24:00.214Z,7.7
2018-02-11T14:25:02.647Z,7.7
2018-02-11T14:26:05.357Z,7.7
2018-02-11T14:27:08.058Z,7.7
2018-02-11T14:28:10.480Z,7.7